Time;durP1;ratioP1;P1;durP2;ratioP2;P2;SDS_P1;SDS_P2;PMS_P1;PMS_P2;Temp;Humidity;BMP_temperature;BMP_pressure;BME280_temperature;BME280_humidity;BME280_pressure;Samples;Min_cycle;Max_cycle;Signal;HPM_P1;HPM_P2
2023/05/31 00:01:15;;;;;;;;;;;;;;;;;;5053252;28;19909;-35
2023/05/31 00:03:43;;;;;;;;;;;;;;;;;;5053239;28;19925;-35
2023/05/31 00:06:08;;;;;;;;;;;;;;;;;;5053016;28;19909;-33
2023/05/31 00:08:35;;;;;;;;;;;;;;;;;;5051818;28;19966;-33
2023/05/31 00:11:01;;;;;;;;;;;;;;;;;;5053130;28;19920;-32
2023/05/31 00:13:27;;;;;;;;;;;;;;;;;;5052947;28;19909;-34
2023/05/31 00:15:53;;;;;;;;;;;;;;;;;;5052863;28;19963;-33
2023/05/31 00:18:18;;;;;;;;;;;;;;;;;;5052903;28;19952;-32
2023/05/31 00:20:44;;;;;;;;;;;;;;;;;;5052839;28;19966;-32
2023/05/31 00:23:10;;;;;;;;;;;;;;;;;;5052699;28;20289;-33
2023/05/31 00:25:36;;;;;;;;;;;;;;;;;;5051591;28;19916;-33
2023/05/31 00:28:02;;;;;;;;;;;;;;;;;;5052701;28;20320;-34
2023/05/31 00:30:28;;;;;;;;;;;;;;;;;;5051436;28;19909;-33
2023/05/31 00:32:54;;;;;;;;;;;;;;;;;;5052720;28;19991;-34
2023/05/31 00:35:20;;;;;;;;;;;;;;;;;;5052747;28;20276;-33
2023/05/31 00:37:46;;;;;;;;;;;;;;;;;;5052492;28;20000;-33
2023/05/31 00:40:11;;;;;;;;;;;;;;;;;;5052418;28;20385;-32
2023/05/31 00:42:37;;;;;;;;;;;;;;;;;;5052708;28;19952;-34
2023/05/31 00:45:03;;;;;;;;;;;;;;;;;;5052597;28;19912;-34
2023/05/31 00:47:29;;;;;;;;;;;;;;;;;;5052549;28;19919;-33
2023/05/31 00:49:55;;;;;;;;;;;;;;;;;;5052493;28;19909;-32
2023/05/31 00:52:21;;;;;;;;;;;;;;;;;;5051539;28;19955;-33
2023/05/31 00:54:47;;;;;;;;;;;;;;;;;;5052423;28;19955;-33
2023/05/31 00:57:13;;;;;;;;;;;;;;;;;;5052385;28;19904;-34
2023/05/31 00:59:38;;;;;;;;;;;;;;;;;;5052257;28;20273;-34
2023/05/31 01:02:05;;;;;;;;;;;;;;;;;;5052213;28;19905;-33
2023/05/31 01:04:30;;;;;;;;;;;;;;;;;;5052200;28;20339;-33
2023/05/31 01:07:00;;;;;;;;;;;;;;;;;;5052344;28;20015;-33
2023/05/31 01:09:26;;;;;;;;;;;;;;;;;;5052116;28;19908;-33
2023/05/31 01:11:51;;;;;;;;;;;;;;;;;;5052207;28;19932;-33
2023/05/31 01:14:17;;;;;;;;;;;;;;;;;;5051939;28;19909;-33
2023/05/31 01:16:43;;;;;;;;;;;;;;;;;;5052260;28;19999;-32
2023/05/31 01:19:09;;;;;;;;;;;;;;;;;;5052253;28;20003;-33
2023/05/31 01:21:37;;;;;;;;;;;;;;;;;;5050761;28;19908;-33
2023/05/31 01:24:03;;;;;;;;;;;;;;;;;;5052317;28;19908;-34
2023/05/31 01:26:29;;;;;;;;;;;;;;;;;;5052153;28;19913;-33
2023/05/31 01:28:55;;;;;;;;;;;;;;;;;;5052083;28;19913;-33
2023/05/31 01:31:21;;;;;;;;;;;;;;;;;;5052088;28;19913;-33
2023/05/31 01:33:47;;;;;;;;;;;;;;;;;;5050729;28;19909;-33
2023/05/31 01:36:13;;;;;;;;;;;;;;;;;;5052199;28;19955;-32
2023/05/31 01:38:38;;;;;;;;;;;;;;;;;;5052066;28;19996;-32
2023/05/31 01:41:07;;;;;;;;;;;;;;;;;;5051909;28;19925;-32
2023/05/31 01:43:33;;;;;;;;;;;;;;;;;;5052028;28;19909;-33
2023/05/31 01:45:59;;;;;;;;;;;;;;;;;;5051926;28;19946;-33
2023/05/31 01:48:25;;;;;;;;;;;;;;;;;;5051891;28;20007;-33
2023/05/31 01:50:51;;;;;;;;;;;;;;;;;;5051973;28;20114;-32
2023/05/31 01:53:17;;;;;;;;;;;;;;;;;;5052088;28;19909;-33
2023/05/31 01:55:43;;;;;;;;;;;;;;;;;;5050773;28;19908;-32
2023/05/31 01:58:09;;;;;;;;;;;;;;;;;;5052009;28;20308;-32
2023/05/31 02:00:35;;;;;;;;;;;;;;;;;;5051986;28;20281;-33
2023/05/31 02:03:01;;;;;;;;;;;;;;;;;;5052540;28;19913;-33
2023/05/31 02:05:27;;;;;;;;;;;;;;;;;;5055445;28;20384;-34
2023/05/31 02:07:54;;;;;;;;;;;;;;;;;;5054240;28;19923;-34
2023/05/31 02:10:20;;;;;;;;;;;;;;;;;;5055347;28;19995;-34
2023/05/31 02:12:47;;;;;;;;;;;;;;;;;;5055381;28;20016;-34
2023/05/31 02:15:13;;;;;;;;;;;;;;;;;;5053840;28;19995;-34
2023/05/31 02:17:42;;;;;;;;;;;;;;;;;;5054195;28;20070;-34
2023/05/31 02:20:09;;;;;;;;;;;;;;;;;;5054927;28;19915;-34
2023/05/31 02:22:35;;;;;;;;;;;;;;;;;;5054926;28;19916;-34
2023/05/31 02:25:00;;;;;;;;;;;;;;;;;;5054845;28;20281;-34
2023/05/31 02:27:28;;;;;;;;;;;;;;;;;;5055155;28;19966;-34
2023/05/31 02:29:54;;;;;;;;;;;;;;;;;;5054902;28;19909;-33
2023/05/31 02:32:20;;;;;;;;;;;;;;;;;;5054804;28;19905;-33
2023/05/31 02:34:46;;;;;;;;;;;;;;;;;;5054707;28;19913;-33
2023/05/31 02:37:12;;;;;;;;;;;;;;;;;;5054734;28;19912;-33
2023/05/31 02:39:37;;;;;;;;;;;;;;;;;;5053210;28;19925;-33
2023/05/31 02:42:03;;;;;;;;;;;;;;;;;;5055078;28;19909;-33
2023/05/31 02:44:29;;;;;;;;;;;;;;;;;;5054400;28;19916;-34
2023/05/31 02:46:55;;;;;;;;;;;;;;;;;;5054534;28;19904;-34
2023/05/31 02:49:21;;;;;;;;;;;;;;;;;;5054695;28;19958;-34
2023/05/31 02:51:47;;;;;;;;;;;;;;;;;;5054651;28;20388;-33
2023/05/31 02:54:13;;;;;;;;;;;;;;;;;;5054662;28;19909;-33
2023/05/31 02:56:39;;;;;;;;;;;;;;;;;;5054790;28;19959;-33
2023/05/31 02:59:05;;;;;;;;;;;;;;;;;;5054709;28;20031;-34
2023/05/31 03:01:31;;;;;;;;;;;;;;;;;;5054564;28;19913;-33
2023/05/31 03:03:57;;;;;;;;;;;;;;;;;;5054633;28;19915;-34
2023/05/31 03:06:23;;;;;;;;;;;;;;;;;;5054450;28;19913;-34
2023/05/31 03:08:49;;;;;;;;;;;;;;;;;;5054307;28;20011;-34
2023/05/31 03:11:15;;;;;;;;;;;;;;;;;;5054340;28;20011;-34
2023/05/31 03:13:40;;;;;;;;;;;;;;;;;;5054234;28;20350;-34
2023/05/31 03:16:06;;;;;;;;;;;;;;;;;;5052163;28;19916;-32
2023/05/31 03:18:32;;;;;;;;;;;;;;;;;;5054369;28;20419;-33
2023/05/31 03:20:58;;;;;;;;;;;;;;;;;;5053953;28;19912;-33
2023/05/31 03:23:24;;;;;;;;;;;;;;;;;;5054071;28;20365;-34
2023/05/31 03:25:50;;;;;;;;;;;;;;;;;;5053998;28;19908;-33
2023/05/31 03:28:16;;;;;;;;;;;;;;;;;;5054116;28;20468;-34
2023/05/31 03:30:42;;;;;;;;;;;;;;;;;;5052765;28;19908;-34
2023/05/31 03:33:10;;;;;;;;;;;;;;;;;;5053870;28;19962;-33
2023/05/31 03:35:35;;;;;;;;;;;;;;;;;;5053766;28;19909;-33
2023/05/31 03:38:01;;;;;;;;;;;;;;;;;;5053753;28;19916;-33
2023/05/31 03:40:27;;;;;;;;;;;;;;;;;;5052338;28;19927;-34
2023/05/31 03:42:53;;;;;;;;;;;;;;;;;;5052437;28;20417;-34
2023/05/31 03:45:19;;;;;;;;;;;;;;;;;;5053852;28;19909;-34
2023/05/31 03:47:45;;;;;;;;;;;;;;;;;;5053714;28;19991;-33
2023/05/31 03:50:11;;;;;;;;;;;;;;;;;;5053873;28;20031;-33
2023/05/31 03:52:37;;;;;;;;;;;;;;;;;;5053497;28;20415;-34
2023/05/31 03:55:03;;;;;;;;;;;;;;;;;;5053404;28;19909;-33
2023/05/31 03:57:29;;;;;;;;;;;;;;;;;;5053316;28;19909;-33
2023/05/31 03:59:55;;;;;;;;;;;;;;;;;;5053381;28;20350;-32
2023/05/31 04:02:21;;;;;;;;;;;;;;;;;;5053353;28;19963;-33
2023/05/31 04:04:47;;;;;;;;;;;;;;;;;;5053102;28;20326;-33
2023/05/31 04:07:12;;;;;;;;;;;;;;;;;;5053186;28;20316;-33
2023/05/31 04:09:39;;;;;;;;;;;;;;;;;;5053122;28;19908;-33
2023/05/31 04:12:05;;;;;;;;;;;;;;;;;;5053511;28;19916;-33
2023/05/31 04:14:31;;;;;;;;;;;;;;;;;;5053045;28;19935;-33
2023/05/31 04:16:57;;;;;;;;;;;;;;;;;;5053081;28;20366;-34
2023/05/31 04:19:23;;;;;;;;;;;;;;;;;;5053012;28;19939;-33
2023/05/31 04:21:49;;;;;;;;;;;;;;;;;;5053082;28;19909;-33
2023/05/31 04:24:15;;;;;;;;;;;;;;;;;;5052825;28;19920;-33
2023/05/31 04:26:41;;;;;;;;;;;;;;;;;;5052886;28;19916;-33
2023/05/31 04:29:07;;;;;;;;;;;;;;;;;;5052794;28;19913;-33
2023/05/31 04:31:36;;;;;;;;;;;;;;;;;;5052780;28;19909;-34
2023/05/31 04:34:03;;;;;;;;;;;;;;;;;;5051543;28;19916;-33
2023/05/31 04:36:32;;;;;;;;;;;;;;;;;;5052632;28;19909;-33
2023/05/31 04:38:58;;;;;;;;;;;;;;;;;;5052406;28;19917;-32
2023/05/31 04:41:25;;;;;;;;;;;;;;;;;;5052745;28;19916;-33
2023/05/31 04:43:52;;;;;;;;;;;;;;;;;;5052444;28;19912;-33
2023/05/31 04:46:19;;;;;;;;;;;;;;;;;;5052697;28;19913;-33
2023/05/31 04:48:48;;;;;;;;;;;;;;;;;;5052462;28;19913;-33
2023/05/31 04:51:14;;;;;;;;;;;;;;;;;;5052324;28;19916;-33
2023/05/31 04:53:40;;;;;;;;;;;;;;;;;;5052419;28;19908;-33
2023/05/31 04:56:07;;;;;;;;;;;;;;;;;;5051185;28;19909;-33
2023/05/31 04:58:33;;;;;;;;;;;;;;;;;;5052267;28;19909;-34
2023/05/31 05:00:59;;;;;;;;;;;;;;;;;;5052274;28;19992;-33
2023/05/31 05:03:25;;;;;;;;;;;;;;;;;;5052272;28;19983;-33
2023/05/31 05:05:51;;;;;;;;;;;;;;;;;;5052342;28;20008;-33
2023/05/31 05:08:17;;;;;;;;;;;;;;;;;;5050877;28;19958;-33
2023/05/31 05:10:43;;;;;;;;;;;;;;;;;;5052362;28;20361;-33
2023/05/31 05:13:10;;;;;;;;;;;;;;;;;;5051140;28;19957;-34
2023/05/31 05:15:36;;;;;;;;;;;;;;;;;;5051863;28;20463;-34
2023/05/31 05:18:01;;;;;;;;;;;;;;;;;;5050896;28;20303;-33
2023/05/31 05:20:28;;;;;;;;;;;;;;;;;;5051878;28;19915;-34
2023/05/31 05:22:53;;;;;;;;;;;;;;;;;;5051760;28;19915;-34
2023/05/31 05:25:21;;;;;;;;;;;;;;;;;;5051876;28;20432;-34
2023/05/31 05:27:47;;;;;;;;;;;;;;;;;;5051680;28;20007;-34
2023/05/31 05:30:12;;;;;;;;;;;;;;;;;;5051732;28;20027;-34
2023/05/31 05:32:38;;;;;;;;;;;;;;;;;;5051676;28;19909;-34
2023/05/31 05:35:04;;;;;;;;;;;;;;;;;;5051585;28;19913;-34
2023/05/31 05:37:30;;;;;;;;;;;;;;;;;;5051776;28;20285;-34
2023/05/31 05:39:57;;;;;;;;;;;;;;;;;;5055632;28;19920;-34
2023/05/31 05:42:23;;;;;;;;;;;;;;;;;;5055555;28;19935;-34
2023/05/31 05:44:49;;;;;;;;;;;;;;;;;;5055398;28;19931;-35
2023/05/31 05:47:15;;;;;;;;;;;;;;;;;;5055564;28;19913;-34
2023/05/31 05:49:41;;;;;;;;;;;;;;;;;;5055855;28;20293;-34
2023/05/31 05:52:07;;;;;;;;;;;;;;;;;;5055723;28;19919;-33
2023/05/31 05:54:33;;;;;;;;;;;;;;;;;;5055585;28;20278;-33
2023/05/31 05:56:59;;;;;;;;;;;;;;;;;;5054407;28;19916;-34
2023/05/31 05:59:25;;;;;;;;;;;;;;;;;;5055842;28;19908;-34
2023/05/31 06:01:51;;;;;;;;;;;;;;;;;;5055492;28;19998;-33
2023/05/31 06:04:16;;;;;;;;;;;;;;;;;;5055365;28;20277;-33
2023/05/31 06:06:42;;;;;;;;;;;;;;;;;;5055664;28;19909;-33
2023/05/31 06:09:08;;;;;;;;;;;;;;;;;;5055664;28;19919;-33
2023/05/31 06:11:34;;;;;;;;;;;;;;;;;;5055630;28;19909;-33
2023/05/31 06:14:00;;;;;;;;;;;;;;;;;;5055235;28;20004;-34
2023/05/31 06:16:26;;;;;;;;;;;;;;;;;;5055333;28;20004;-38
2023/05/31 06:18:53;;;;;;;;;;;;;;;;;;5055372;28;19909;-33
2023/05/31 06:21:18;;;;;;;;;;;;;;;;;;5055546;28;19962;-32
2023/05/31 06:23:44;;;;;;;;;;;;;;;;;;5055052;28;20361;-34
2023/05/31 06:26:11;;;;;;;;;;;;;;;;;;5055132;28;19948;-34
2023/05/31 06:28:36;;;;;;;;;;;;;;;;;;5055036;28;20358;-34
2023/05/31 06:31:02;;;;;;;;;;;;;;;;;;5055067;28;19960;-34
2023/05/31 06:33:28;;;;;;;;;;;;;;;;;;5053810;28;20270;-34
2023/05/31 06:35:54;;;;;;;;;;;;;;;;;;5055031;28;19962;-34
2023/05/31 06:38:21;;;;;;;;;;;;;;;;;;5054984;28;20007;-33
2023/05/31 06:40:47;;;;;;;;;;;;;;;;;;5054844;28;19963;-33
2023/05/31 06:43:15;;;;;;;;;;;;;;;;;;5054861;28;19921;-34
2023/05/31 06:45:41;;;;;;;;;;;;;;;;;;5054637;28;20023;-33
2023/05/31 06:48:08;;;;;;;;;;;;;;;;;;5054379;28;20266;-33
2023/05/31 06:50:34;;;;;;;;;;;;;;;;;;5052130;28;19936;-33
2023/05/31 06:52:59;;;;;;;;;;;;;;;;;;5054547;28;19909;-33
2023/05/31 06:55:25;;;;;;;;;;;;;;;;;;5054694;28;19916;-33
2023/05/31 06:57:51;;;;;;;;;;;;;;;;;;5054410;28;19913;-33
2023/05/31 07:00:17;;;;;;;;;;;;;;;;;;5054437;28;20306;-34
2023/05/31 07:02:43;;;;;;;;;;;;;;;;;;5054555;28;19991;-34
2023/05/31 07:05:09;;;;;;;;;;;;;;;;;;5054372;28;19917;-33
2023/05/31 07:07:35;;;;;;;;;;;;;;;;;;5054474;28;19913;-33
2023/05/31 07:10:01;;;;;;;;;;;;;;;;;;5054375;28;20277;-33
2023/05/31 07:12:27;;;;;;;;;;;;;;;;;;5054216;28;19954;-34
2023/05/31 07:14:52;;;;;;;;;;;;;;;;;;5054244;28;19909;-33
2023/05/31 07:17:18;;;;;;;;;;;;;;;;;;5054167;28;19912;-34
2023/05/31 07:19:44;;;;;;;;;;;;;;;;;;5054341;28;19909;-34
2023/05/31 07:22:10;;;;;;;;;;;;;;;;;;5054084;28;19908;-34
2023/05/31 07:24:36;;;;;;;;;;;;;;;;;;5054109;28;19909;-34
2023/05/31 07:27:02;;;;;;;;;;;;;;;;;;5054023;28;20007;-34
2023/05/31 07:29:28;;;;;;;;;;;;;;;;;;5053867;28;19913;-34
2023/05/31 07:31:54;;;;;;;;;;;;;;;;;;5053875;28;20408;-34
2023/05/31 07:34:20;;;;;;;;;;;;;;;;;;5053814;28;19956;-34
2023/05/31 07:36:45;;;;;;;;;;;;;;;;;;5053779;28;19931;-34
2023/05/31 07:39:12;;;;;;;;;;;;;;;;;;5053498;28;19970;-34
2023/05/31 07:41:38;;;;;;;;;;;;;;;;;;5053796;28;20400;-34
2023/05/31 07:44:05;;;;;;;;;;;;;;;;;;5053589;28;19909;-34
2023/05/31 07:46:31;;;;;;;;;;;;;;;;;;5053635;28;20266;-34
2023/05/31 07:48:56;;;;;;;;;;;;;;;;;;5053447;28;19920;-34
2023/05/31 07:51:22;;;;;;;;;;;;;;;;;;5053406;28;19909;-34
2023/05/31 07:53:48;;;;;;;;;;;;;;;;;;5053695;28;19919;-34
2023/05/31 07:56:14;;;;;;;;;;;;;;;;;;5052270;28;20715;-34
2023/05/31 07:58:40;;;;;;;;;;;;;;;;;;5053711;28;20395;-29
2023/05/31 08:01:06;;;;;;;;;;;;;;;;;;5054221;28;19944;-29
2023/05/31 08:03:32;;;;;;;;;;;;;;;;;;5054390;28;20273;-29
2023/05/31 08:05:58;;;;;;;;;;;;;;;;;;5054273;28;19936;-29
2023/05/31 08:08:24;;;;;;;;;;;;;;;;;;5052928;28;19920;-31
2023/05/31 08:10:49;;;;;;;;;;;;;;;;;;5054193;28;19908;-30
2023/05/31 08:13:15;;;;;;;;;;;;;;;;;;5052952;28;19913;-31
2023/05/31 08:15:41;;;;;;;;;;;;;;;;;;5054049;28;20011;-30
2023/05/31 08:18:07;;;;;;;;;;;;;;;;;;5054035;28;19997;-29
2023/05/31 08:20:33;;;;;;;;;;;;;;;;;;5053847;28;19913;-30
2023/05/31 08:22:59;;;;;;;;;;;;;;;;;;5054018;28;19955;-30
2023/05/31 08:25:25;;;;;;;;;;;;;;;;;;5053843;28;20388;-29
2023/05/31 08:27:51;;;;;;;;;;;;;;;;;;5053794;28;19971;-29
2023/05/31 08:30:17;;;;;;;;;;;;;;;;;;5053790;28;20429;-33
2023/05/31 08:32:42;;;;;;;;;;;;;;;;;;5053795;28;19905;-31
2023/05/31 08:35:09;;;;;;;;;;;;;;;;;;5053776;28;19908;-30
2023/05/31 08:37:35;;;;;;;;;;;;;;;;;;5053640;28;20377;-30
2023/05/31 08:40:01;;;;;;;;;;;;;;;;;;5053674;28;20023;-29
2023/05/31 08:42:27;;;;;;;;;;;;;;;;;;5052451;28;19968;-28
2023/05/31 08:44:53;;;;;;;;;;;;;;;;;;5053598;28;20039;-30
2023/05/31 08:47:18;;;;;;;;;;;;;;;;;;5053497;28;20278;-30
2023/05/31 08:49:44;;;;;;;;;;;;;;;;;;5053482;28;19909;-30
2023/05/31 08:52:10;;;;;;;;;;;;;;;;;;5053310;28;19909;-31
2023/05/31 08:54:36;;;;;;;;;;;;;;;;;;5053477;28;19958;-29
2023/05/31 08:57:03;;;;;;;;;;;;;;;;;;5053152;28;19916;-35
2023/05/31 08:59:28;;;;;;;;;;;;;;;;;;5052515;28;19916;-34
2023/05/31 09:01:54;;;;;;;;;;;;;;;;;;5051326;28;19909;-34
2023/05/31 09:04:20;;;;;;;;;;;;;;;;;;5052262;28;19909;-40
2023/05/31 09:06:46;;;;;;;;;;;;;;;;;;5052354;28;19952;-35
2023/05/31 09:09:12;;;;;;;;;;;;;;;;;;5052246;28;19912;-38
2023/05/31 09:11:40;;;;;;;;;;;;;;;;;;5052172;28;19916;-39
2023/05/31 09:14:06;;;;;;;;;;;;;;;;;;5051637;28;19936;-38
2023/05/31 09:16:32;;;;;;;;;;;;;;;;;;5052249;28;19909;-38
2023/05/31 09:18:58;;;;;;;;;;;;;;;;;;5052219;28;19963;-42
2023/05/31 09:21:23;;;;;;;;;;;;;;;;;;5052251;28;19951;-40
2023/05/31 09:23:49;;;;;;;;;;;;;;;;;;5050885;28;19909;-40
2023/05/31 09:26:15;;;;;;;;;;;;;;;;;;5052223;28;19963;-37
2023/05/31 09:28:41;;;;;;;;;;;;;;;;;;5051979;28;19916;-38
2023/05/31 09:31:07;;;;;;;;;;;;;;;;;;5052012;28;19909;-39
2023/05/31 09:33:33;;;;;;;;;;;;;;;;;;5050830;28;19913;-41
2023/05/31 09:35:59;;;;;;;;;;;;;;;;;;5052418;28;20563;-36
2023/05/31 09:38:25;;;;;;;;;;;;;;;;;;5050832;28;19924;-39
2023/05/31 09:40:51;;;;;;;;;;;;;;;;;;5051727;28;20007;-39
2023/05/31 09:43:16;;;;;;;;;;;;;;;;;;5051801;28;20277;-37
2023/05/31 09:45:42;;;;;;;;;;;;;;;;;;5051941;28;19913;-35
2023/05/31 09:48:08;;;;;;;;;;;;;;;;;;5051796;28;20019;-41
2023/05/31 09:50:34;;;;;;;;;;;;;;;;;;5052172;28;20289;-37
2023/05/31 09:53:00;;;;;;;;;;;;;;;;;;5052042;28;19909;-38
2023/05/31 09:55:26;;;;;;;;;;;;;;;;;;5051882;28;19909;-38
2023/05/31 09:57:52;;;;;;;;;;;;;;;;;;5051839;28;19908;-38
2023/05/31 10:00:18;;;;;;;;;;;;;;;;;;5051939;28;20452;-38
2023/05/31 10:02:44;;;;;;;;;;;;;;;;;;5051889;28;19912;-35
2023/05/31 10:05:11;;;;;;;;;;;;;;;;;;5050547;28;19962;-38
2023/05/31 10:07:37;;;;;;;;;;;;;;;;;;5051592;28;19959;-40
2023/05/31 10:10:03;;;;;;;;;;;;;;;;;;5051518;28;20297;-38
2023/05/31 10:12:29;;;;;;;;;;;;;;;;;;5052196;28;19905;-39
2023/05/31 10:14:55;;;;;;;;;;;;;;;;;;5051742;28;20004;-38
2023/05/31 10:17:21;;;;;;;;;;;;;;;;;;5051788;28;19919;-39
2023/05/31 10:19:47;;;;;;;;;;;;;;;;;;5051707;28;19913;-38
2023/05/31 10:22:13;;;;;;;;;;;;;;;;;;5051397;28;20000;-37
2023/05/31 10:24:40;;;;;;;;;;;;;;;;;;5053634;28;19913;-37
2023/05/31 10:27:06;;;;;;;;;;;;;;;;;;5055471;28;19908;-39
2023/05/31 10:29:32;;;;;;;;;;;;;;;;;;5054227;28;20554;-37
2023/05/31 10:31:57;;;;;;;;;;;;;;;;;;5053933;28;20285;-36
2023/05/31 10:34:24;;;;;;;;;;;;;;;;;;5055108;28;19909;-38
2023/05/31 10:36:50;;;;;;;;;;;;;;;;;;5055098;28;19916;-37
2023/05/31 10:39:15;;;;;;;;;;;;;;;;;;5054814;28;20321;-36
2023/05/31 10:41:41;;;;;;;;;;;;;;;;;;5054994;28;20358;-36
2023/05/31 10:44:07;;;;;;;;;;;;;;;;;;5055059;28;19919;-38
2023/05/31 10:46:33;;;;;;;;;;;;;;;;;;5054578;28;19908;-39
2023/05/31 10:48:59;;;;;;;;;;;;;;;;;;5054834;28;19913;-34
2023/05/31 10:51:25;;;;;;;;;;;;;;;;;;5054810;28;19909;-40
2023/05/31 10:53:51;;;;;;;;;;;;;;;;;;5054794;28;19920;-43
2023/05/31 10:56:19;;;;;;;;;;;;;;;;;;5054841;28;19999;-41
2023/05/31 10:58:45;;;;;;;;;;;;;;;;;;5054443;28;19909;-42
2023/05/31 11:01:11;;;;;;;;;;;;;;;;;;5054495;28;20412;-40
2023/05/31 11:03:37;;;;;;;;;;;;;;;;;;5054429;28;19909;-40
2023/05/31 11:06:03;;;;;;;;;;;;;;;;;;5054343;28;20042;-39
2023/05/31 11:08:29;;;;;;;;;;;;;;;;;;5054096;28;19913;-42
2023/05/31 11:10:55;;;;;;;;;;;;;;;;;;5054170;28;19915;-41
2023/05/31 11:13:21;;;;;;;;;;;;;;;;;;5054252;28;19913;-40
2023/05/31 11:15:47;;;;;;;;;;;;;;;;;;5054871;28;19959;-30
2023/05/31 11:18:13;;;;;;;;;;;;;;;;;;5054996;28;19909;-39
2023/05/31 11:20:39;;;;;;;;;;;;;;;;;;5054353;28;20074;-39
2023/05/31 11:23:05;;;;;;;;;;;;;;;;;;5054811;28;20062;-32
2023/05/31 11:25:31;;;;;;;;;;;;;;;;;;5055102;28;19932;-29
2023/05/31 11:27:56;;;;;;;;;;;;;;;;;;5055126;28;20333;-31
2023/05/31 11:30:22;;;;;;;;;;;;;;;;;;5054934;28;19912;-29
2023/05/31 11:32:48;;;;;;;;;;;;;;;;;;5054958;28;19908;-29
2023/05/31 11:35:14;;;;;;;;;;;;;;;;;;5054334;28;20416;-28
2023/05/31 11:37:40;;;;;;;;;;;;;;;;;;5054324;28;19909;-31
2023/05/31 11:40:07;;;;;;;;;;;;;;;;;;5054408;28;19921;-31
2023/05/31 11:42:33;;;;;;;;;;;;;;;;;;5054744;28;19913;-32
2023/05/31 11:44:59;;;;;;;;;;;;;;;;;;5054770;28;20250;-31
2023/05/31 11:47:25;;;;;;;;;;;;;;;;;;5054520;28;20115;-30
2023/05/31 11:49:51;;;;;;;;;;;;;;;;;;5054556;28;20011;-42
2023/05/31 11:52:17;;;;;;;;;;;;;;;;;;5053923;28;19940;-42
2023/05/31 11:54:44;;;;;;;;;;;;;;;;;;5053842;28;19909;-42
2023/05/31 11:57:10;;;;;;;;;;;;;;;;;;5054077;28;19909;-44
2023/05/31 11:59:36;;;;;;;;;;;;;;;;;;5054195;28;19991;-43
2023/05/31 12:02:02;;;;;;;;;;;;;;;;;;5054137;28;20015;-44
2023/05/31 12:04:28;;;;;;;;;;;;;;;;;;5054058;28;20353;-43
2023/05/31 12:06:54;;;;;;;;;;;;;;;;;;5053991;28;19913;-44
2023/05/31 12:09:20;;;;;;;;;;;;;;;;;;5053938;28;19920;-44
2023/05/31 12:11:46;;;;;;;;;;;;;;;;;;5053990;28;20000;-43
2023/05/31 12:14:12;;;;;;;;;;;;;;;;;;5053928;28;19919;-42
2023/05/31 12:16:37;;;;;;;;;;;;;;;;;;5054067;28;20625;-43
2023/05/31 12:19:04;;;;;;;;;;;;;;;;;;5053657;28;19909;-44
2023/05/31 12:21:30;;;;;;;;;;;;;;;;;;5052629;28;19909;-43
2023/05/31 12:23:57;;;;;;;;;;;;;;;;;;5053649;28;20358;-44
2023/05/31 12:26:23;;;;;;;;;;;;;;;;;;5053727;28;19909;-43
2023/05/31 12:28:50;;;;;;;;;;;;;;;;;;5053614;28;19920;-43
2023/05/31 12:31:15;;;;;;;;;;;;;;;;;;5053672;28;19916;-43
2023/05/31 12:33:41;;;;;;;;;;;;;;;;;;5053669;28;19913;-43
2023/05/31 12:36:07;;;;;;;;;;;;;;;;;;5052296;28;19994;-43
2023/05/31 12:38:34;;;;;;;;;;;;;;;;;;5053369;28;19909;-43
2023/05/31 12:41:00;;;;;;;;;;;;;;;;;;5053298;28;19932;-43
2023/05/31 12:43:26;;;;;;;;;;;;;;;;;;5053294;28;20259;-43
2023/05/31 12:45:52;;;;;;;;;;;;;;;;;;5053228;28;19909;-42
2023/05/31 12:48:18;;;;;;;;;;;;;;;;;;5052206;28;20270;-43
2023/05/31 12:50:44;;;;;;;;;;;;;;;;;;5053101;28;19915;-43
2023/05/31 12:53:10;;;;;;;;;;;;;;;;;;5053089;28;19913;-43
2023/05/31 12:55:36;;;;;;;;;;;;;;;;;;5053195;28;19908;-42
2023/05/31 12:58:01;;;;;;;;;;;;;;;;;;5051742;28;19909;-43
2023/05/31 13:00:27;;;;;;;;;;;;;;;;;;5051607;28;19917;-43
2023/05/31 13:02:53;;;;;;;;;;;;;;;;;;5053161;28;20350;-42
2023/05/31 13:05:19;;;;;;;;;;;;;;;;;;5052860;28;19909;-44
2023/05/31 13:07:46;;;;;;;;;;;;;;;;;;5053044;28;20378;-42
2023/05/31 13:10:13;;;;;;;;;;;;;;;;;;5053079;28;19912;-42
2023/05/31 13:12:39;;;;;;;;;;;;;;;;;;5052989;28;19913;-42
2023/05/31 13:15:05;;;;;;;;;;;;;;;;;;5053079;28;19919;-43
2023/05/31 13:17:31;;;;;;;;;;;;;;;;;;5053011;28;19919;-42
2023/05/31 13:19:57;;;;;;;;;;;;;;;;;;5054721;28;19909;-32
2023/05/31 13:22:23;;;;;;;;;;;;;;;;;;5051934;28;19909;-29
2023/05/31 13:24:48;;;;;;;;;;;;;;;;;;5053036;28;19909;-31
2023/05/31 13:27:14;;;;;;;;;;;;;;;;;;5052847;28;19958;-28
2023/05/31 13:29:40;;;;;;;;;;;;;;;;;;5053000;28;19999;-29
2023/05/31 13:32:06;;;;;;;;;;;;;;;;;;5053012;28;19909;-29
2023/05/31 13:34:32;;;;;;;;;;;;;;;;;;5051712;28;20358;-29
2023/05/31 13:36:58;;;;;;;;;;;;;;;;;;5052939;28;19955;-29
2023/05/31 13:39:24;;;;;;;;;;;;;;;;;;5052996;28;20280;-30
2023/05/31 13:41:50;;;;;;;;;;;;;;;;;;5052816;28;19913;-29
2023/05/31 13:44:16;;;;;;;;;;;;;;;;;;5052858;28;20350;-29
2023/05/31 13:46:42;;;;;;;;;;;;;;;;;;5052564;28;20050;-29
2023/05/31 13:49:08;;;;;;;;;;;;;;;;;;5052916;28;20000;-29
2023/05/31 13:51:34;;;;;;;;;;;;;;;;;;5053044;28;19916;-34
2023/05/31 13:54:00;;;;;;;;;;;;;;;;;;5052853;28;19916;-30
2023/05/31 13:56:26;;;;;;;;;;;;;;;;;;5052790;28;20387;-30
2023/05/31 13:58:52;;;;;;;;;;;;;;;;;;5053688;28;19915;-30
2023/05/31 14:01:17;;;;;;;;;;;;;;;;;;5056577;28;19998;-32
2023/05/31 14:03:43;;;;;;;;;;;;;;;;;;5056844;28;19909;-31
2023/05/31 14:06:10;;;;;;;;;;;;;;;;;;5056609;28;19951;-28
2023/05/31 14:08:36;;;;;;;;;;;;;;;;;;5056212;28;19913;-29
2023/05/31 14:11:03;;;;;;;;;;;;;;;;;;5056464;28;20403;-32
2023/05/31 14:13:29;;;;;;;;;;;;;;;;;;5056626;28;20003;-31
2023/05/31 14:15:56;;;;;;;;;;;;;;;;;;5055170;28;19954;-31
2023/05/31 14:18:22;;;;;;;;;;;;;;;;;;5056549;28;19917;-32
2023/05/31 14:20:48;;;;;;;;;;;;;;;;;;5056488;28;19916;-31
2023/05/31 14:23:14;;;;;;;;;;;;;;;;;;5056044;28;20342;-33
2023/05/31 14:25:40;;;;;;;;;;;;;;;;;;5054897;28;19946;-30
2023/05/31 14:28:06;;;;;;;;;;;;;;;;;;5056057;28;19913;-32
2023/05/31 14:30:31;;;;;;;;;;;;;;;;;;5055887;28;19908;-32
2023/05/31 14:32:57;;;;;;;;;;;;;;;;;;5056008;28;19916;-29
2023/05/31 14:35:23;;;;;;;;;;;;;;;;;;5055970;28;20397;-31
2023/05/31 14:37:49;;;;;;;;;;;;;;;;;;5056049;28;19916;-36
2023/05/31 14:40:16;;;;;;;;;;;;;;;;;;5055610;28;19960;-40
2023/05/31 14:42:42;;;;;;;;;;;;;;;;;;5055758;28;19917;-34
2023/05/31 14:45:08;;;;;;;;;;;;;;;;;;5055528;28;20000;-42
2023/05/31 14:47:36;;;;;;;;;;;;;;;;;;5055159;28;19956;-44
2023/05/31 14:50:03;;;;;;;;;;;;;;;;;;5055712;28;19920;-43
2023/05/31 14:52:28;;;;;;;;;;;;;;;;;;5055403;28;20281;-44
2023/05/31 14:54:54;;;;;;;;;;;;;;;;;;5055154;28;19909;-42
2023/05/31 14:57:20;;;;;;;;;;;;;;;;;;5055249;28;20334;-43
2023/05/31 14:59:46;;;;;;;;;;;;;;;;;;5055440;28;19909;-42
2023/05/31 15:02:12;;;;;;;;;;;;;;;;;;5055336;28;20358;-43
2023/05/31 15:04:38;;;;;;;;;;;;;;;;;;5055273;28;19945;-43
2023/05/31 15:07:04;;;;;;;;;;;;;;;;;;5055238;28;19908;-42
2023/05/31 15:09:30;;;;;;;;;;;;;;;;;;5055128;28;20274;-43
2023/05/31 15:11:55;;;;;;;;;;;;;;;;;;5053980;28;19916;-42
2023/05/31 15:14:21;;;;;;;;;;;;;;;;;;5054823;28;19913;-42
2023/05/31 15:16:47;;;;;;;;;;;;;;;;;;5054890;28;19912;-43
2023/05/31 15:19:13;;;;;;;;;;;;;;;;;;5054932;28;20031;-42
2023/05/31 15:21:40;;;;;;;;;;;;;;;;;;5054854;28;19958;-41
2023/05/31 15:24:06;;;;;;;;;;;;;;;;;;5054589;28;19908;-43
2023/05/31 15:26:31;;;;;;;;;;;;;;;;;;5053411;28;19963;-42
2023/05/31 15:28:57;;;;;;;;;;;;;;;;;;5054748;28;20250;-42
2023/05/31 15:31:23;;;;;;;;;;;;;;;;;;5053560;28;20008;-42
2023/05/31 15:33:50;;;;;;;;;;;;;;;;;;5054736;28;19908;-44
2023/05/31 15:36:16;;;;;;;;;;;;;;;;;;5054661;28;19952;-43
2023/05/31 15:38:42;;;;;;;;;;;;;;;;;;5054646;28;19909;-43
2023/05/31 15:41:07;;;;;;;;;;;;;;;;;;5054308;28;19925;-42
2023/05/31 15:43:34;;;;;;;;;;;;;;;;;;5054394;28;19951;-43
2023/05/31 15:46:00;;;;;;;;;;;;;;;;;;5054581;28;20423;-43
2023/05/31 15:48:26;;;;;;;;;;;;;;;;;;5054655;28;20273;-43
2023/05/31 15:50:52;;;;;;;;;;;;;;;;;;5054195;28;19909;-42
2023/05/31 15:53:18;;;;;;;;;;;;;;;;;;5054231;28;20340;-43
2023/05/31 15:55:44;;;;;;;;;;;;;;;;;;5054276;28;20000;-42
2023/05/31 15:58:10;;;;;;;;;;;;;;;;;;5054242;28;20278;-41
2023/05/31 16:00:35;;;;;;;;;;;;;;;;;;5054082;28;19909;-43
2023/05/31 16:03:01;;;;;;;;;;;;;;;;;;5054021;28;19913;-42
2023/05/31 16:05:27;;;;;;;;;;;;;;;;;;5054007;28;19955;-42
2023/05/31 16:07:53;;;;;;;;;;;;;;;;;;5053988;28;19952;-43
2023/05/31 16:10:20;;;;;;;;;;;;;;;;;;5053900;28;19913;-44
2023/05/31 16:12:45;;;;;;;;;;;;;;;;;;5053985;28;19946;-43
2023/05/31 16:15:11;;;;;;;;;;;;;;;;;;5054046;28;19956;-42
2023/05/31 16:17:38;;;;;;;;;;;;;;;;;;5054228;28;19909;-42
2023/05/31 16:20:04;;;;;;;;;;;;;;;;;;5051910;28;19919;-40
2023/05/31 16:22:30;;;;;;;;;;;;;;;;;;5073727;28;19909;-43
2023/05/31 16:24:56;;;;;;;;;;;;;;;;;;5073774;28;19948;-43
2023/05/31 16:27:22;;;;;;;;;;;;;;;;;;5073827;28;20357;-43
2023/05/31 16:29:48;;;;;;;;;;;;;;;;;;5073891;28;20321;-44
2023/05/31 16:32:14;;;;;;;;;;;;;;;;;;5073738;28;19947;-43
2023/05/31 16:34:40;;;;;;;;;;;;;;;;;;5073856;28;19915;-43
2023/05/31 16:37:06;;;;;;;;;;;;;;;;;;5064898;28;19909;-42